Time;durP1;ratioP1;P1;durP2;ratioP2;P2;SDS_P1;SDS_P2;PMS_P1;PMS_P2;Temp;Humidity;BMP_temperature;BMP_pressure;BME280_temperature;BME280_humidity;BME280_pressure;Samples;Min_cycle;Max_cycle;Signal;HPM_P1;HPM_P2
2022/10/09 00:01:24;;;;;;;4.38;1.90;;;;;;;19.03;45.66;102467.31;5060837;28;20272;-62
2022/10/09 00:03:52;;;;;;;5.40;2.10;;;;;;;19.03;45.93;102475.25;5060855;28;20123;-64
2022/10/09 00:06:30;;;;;;;4.38;1.80;;;;;;;19.10;45.92;102488.94;5060576;28;20032;-64
2022/10/09 00:08:55;;;;;;;6.18;1.70;;;;;;;19.02;45.79;102478.81;5060759;28;20055;-63
2022/10/09 00:11:23;;;;;;;4.80;2.42;;;;;;;19.07;45.79;102485.66;5060617;28;20421;-66
2022/10/09 00:13:50;;;;;;;4.85;1.83;;;;;;;19.01;45.89;102478.94;5063741;28;20079;-64
2022/10/09 00:16:16;;;;;;;4.00;1.80;;;;;;;18.98;45.58;102479.97;5064816;28;20539;-63
2022/10/09 00:18:43;;;;;;;3.60;1.77;;;;;;;19.00;45.75;102479.88;5064458;28;20492;-66
2022/10/09 00:21:24;;;;;;;4.55;1.80;;;;;;;19.00;45.23;102482.53;5064990;28;20139;-63
2022/10/09 00:23:51;;;;;;;5.22;2.08;;;;;;;19.05;45.58;102492.81;5064516;28;20418;-66
2022/10/09 00:26:17;;;;;;;4.20;1.80;;;;;;;19.02;45.57;102486.75;5064390;28;20053;-63
2022/10/09 00:28:42;;;;;;;5.47;2.03;;;;;;;18.96;45.63;102483.63;5064415;28;20029;-64
2022/10/09 00:31:09;;;;;;;5.30;1.83;;;;;;;18.95;45.82;102482.78;5064495;28;20328;-64
2022/10/09 00:33:35;;;;;;;6.78;2.13;;;;;;;18.95;45.49;102479.31;5064496;28;20285;-64
2022/10/09 00:36:03;;;;;;;4.95;1.95;;;;;;;18.99;45.41;102486.97;5064499;28;20028;-63
2022/10/09 00:38:28;;;;;;;4.32;2.20;;;;;;;18.92;45.27;102472.41;5064539;28;20021;-64
2022/10/09 00:40:54;;;;;;;5.85;2.08;;;;;;;18.98;45.62;102487.91;5064343;28;20029;-63
2022/10/09 00:43:41;;;;;;;4.40;2.00;;;;;;;18.96;45.44;102479.22;5064420;28;20361;-65
2022/10/09 00:46:17;;;;;;;12.02;2.28;;;;;;;18.90;45.40;102469.00;5064206;28;20253;-63
2022/10/09 00:48:43;;;;;;;5.85;2.00;;;;;;;18.93;45.41;102476.75;5064144;28;20412;-66
2022/10/09 00:51:08;;;;;;;4.70;1.92;;;;;;;18.94;45.30;102486.38;5063788;28;20032;-65
2022/10/09 00:53:34;;;;;;;5.20;2.13;;;;;;;18.87;45.18;102473.59;5064138;28;20483;-65
2022/10/09 00:55:59;;;;;;;4.07;1.73;;;;;;;18.85;45.08;102466.63;5064176;28;20036;-62
2022/10/09 00:58:25;;;;;;;4.95;2.20;;;;;;;18.83;45.03;102468.50;5063836;28;20409;-62
2022/10/09 01:00:51;;;;;;;5.60;2.20;;;;;;;18.83;45.16;102464.97;5064108;28;20029;-65
2022/10/09 01:03:16;;;;;;;4.55;2.25;;;;;;;18.91;45.11;102475.13;5064022;28;20037;-64
2022/10/09 01:05:59;;;;;;;4.18;2.20;;;;;;;18.92;45.22;102471.56;5063874;28;20491;-64
2022/10/09 01:08:34;;;;;;;4.40;2.05;;;;;;;18.85;45.16;102471.06;5063189;28;20388;-66
2022/10/09 01:11:19;;;;;;;5.10;1.88;;;;;;;18.85;45.13;102477.19;5063721;28;20041;-63
2022/10/09 01:13:52;;;;;;;6.50;2.08;;;;;;;18.88;45.15;102478.78;5063784;28;20052;-63
2022/10/09 01:16:30;;;;;;;5.63;2.25;;;;;;;18.86;45.08;102480.69;5063760;28;20036;-64
2022/10/09 01:18:56;;;;;;;4.43;2.00;;;;;;;18.88;45.14;102478.78;5063617;28;20036;-64
2022/10/09 01:21:32;;;;;;;4.67;2.20;;;;;;;18.85;44.87;102476.34;5063330;28;20043;-63
2022/10/09 01:24:37;;;;;;;4.78;2.13;;;;;;;18.84;44.78;102480.78;5062659;28;20059;-64
2022/10/09 01:27:17;;;;;;;4.68;2.15;;;;;;;18.82;44.80;102479.16;5063365;28;20420;-63
2022/10/09 01:29:49;;;;;;;6.93;2.42;;;;;;;18.81;45.01;102474.78;5063439;28;20547;-65
2022/10/09 01:32:19;;;;;;;4.30;2.05;;;;;;;18.81;44.91;102475.63;5063412;28;20025;-64
2022/10/09 01:34:46;;;;;;;4.82;2.15;;;;;;;18.78;44.82;102470.53;5063226;28;20044;-66
2022/10/09 01:37:13;;;;;;;4.57;2.15;;;;;;;18.72;45.02;102456.84;5063345;28;20028;-65
2022/10/09 01:39:41;;;;;;;5.25;2.45;;;;;;;18.75;44.68;102460.13;5063243;28;20098;-62
2022/10/09 01:42:08;;;;;;;4.80;2.00;;;;;;;18.78;44.77;102457.31;5063203;28;20068;-64
2022/10/09 01:44:33;;;;;;;5.22;2.20;;;;;;;18.74;44.65;102450.53;5063060;28;20037;-63
2022/10/09 01:46:59;;;;;;;4.18;1.98;;;;;;;18.78;44.60;102457.31;5062873;28;20039;-64
2022/10/09 01:49:27;;;;;;;5.13;2.42;;;;;;;18.78;44.81;102453.84;5063090;28;20032;-64
2022/10/09 01:52:02;;;;;;;4.72;2.30;;;;;;;18.77;44.70;102447.72;5062815;28;20047;-63
2022/10/09 01:54:31;;;;;;;;;;;;;;;18.75;44.71;102452.22;5063231;28;20040;-64
2022/10/09 01:57:01;;;;;;;6.13;2.50;;;;;;;18.74;44.50;102449.66;5062477;28;20482;-64
2022/10/09 01:59:28;;;;;;;5.15;2.20;;;;;;;18.69;44.72;102436.72;5062956;28;20029;-63
2022/10/09 02:01:57;;;;;;;4.55;2.33;;;;;;;18.68;44.65;102419.19;5062904;28;20046;-62
2022/10/09 02:04:23;;;;;;;6.38;2.33;;;;;;;18.73;44.75;102438.25;5062850;28;20028;-65
2022/10/09 02:06:48;;;;;;;4.82;2.35;;;;;;;18.71;44.63;102436.63;5062359;28;20024;-64
2022/10/09 02:09:16;;;;;;;4.20;2.10;;;;;;;18.65;44.26;102420.22;5062923;28;21235;-66
2022/10/09 02:11:47;;;;;;;4.80;1.85;;;;;;;18.67;44.42;102418.38;5062567;28;20033;-64
2022/10/09 02:14:12;;;;;;;4.60;2.25;;;;;;;18.66;44.29;102415.81;5062432;28;20457;-66
2022/10/09 02:16:41;;;;;;;6.32;2.45;;;;;;;18.66;44.24;102419.28;5062384;28;20032;-65
2022/10/09 02:19:41;;;;;;;4.32;2.30;;;;;;;18.68;44.46;102427.97;5062080;28;20028;-64
2022/10/09 02:22:13;;;;;;;5.45;2.47;;;;;;;18.66;44.19;102427.22;5062168;28;20028;-65
2022/10/09 02:24:39;;;;;;;5.57;2.50;;;;;;;18.67;44.02;102426.28;5062001;28;20146;-64
2022/10/09 02:27:05;;;;;;;4.72;2.17;;;;;;;18.68;44.22;102427.13;5061972;28;20060;-66
2022/10/09 02:29:31;;;;;;;5.97;2.60;;;;;;;18.59;44.42;102412.66;5062303;28;20020;-64
2022/10/09 02:31:56;;;;;;;6.07;2.42;;;;;;;18.66;44.10;102419.28;5061859;28;20043;-64
2022/10/09 02:34:21;;;;;;;4.38;2.15;;;;;;;18.56;44.25;102399.63;5062336;28;20063;-65
2022/10/09 02:36:48;;;;;;;5.70;2.67;;;;;;;18.65;43.97;102414.09;5061643;28;20024;-63
2022/10/09 02:39:14;;;;;;;5.22;2.25;;;;;;;18.54;44.24;102401.53;5061801;28;20819;-64
2022/10/09 02:41:39;;;;;;;4.78;2.25;;;;;;;18.63;44.00;102419.47;5062187;28;20029;-62
2022/10/09 02:44:05;;;;;;;4.07;2.17;;;;;;;18.63;44.15;102410.72;5061890;28;20455;-63
2022/10/09 02:46:31;;;;;;;6.88;2.88;;;;;;;18.56;43.81;102404.06;5062038;28;20468;-62
2022/10/09 02:48:56;;;;;;;4.88;2.45;;;;;;;18.55;43.90;102411.16;5061654;28;20055;-62
2022/10/09 02:51:22;;;;;;;4.47;2.55;;;;;;;18.58;44.08;102407.47;5061685;28;20112;-63
2022/10/09 02:53:47;;;;;;;5.50;2.45;;;;;;;18.54;43.96;102403.31;5061893;28;20028;-63
2022/10/09 02:56:13;;;;;;;6.35;2.60;;;;;;;18.56;43.85;102406.72;5062075;28;20785;-62
2022/10/09 02:58:38;;;;;;;4.10;2.58;;;;;;;18.56;43.73;102409.34;5061489;28;20032;-63
2022/10/09 03:01:04;;;;;;;4.45;2.38;;;;;;;18.58;44.22;102413.63;5061650;28;20053;-62
2022/10/09 03:03:29;;;;;;;4.72;2.50;;;;;;;18.52;43.72;102407.81;5061270;28;20081;-63
2022/10/09 03:06:10;;;;;;;4.20;2.03;;;;;;;18.50;43.93;102402.66;5061441;28;20524;-62
2022/10/09 03:08:37;;;;;;;4.55;2.47;;;;;;;18.57;43.89;102403.97;5061807;28;20136;-63
2022/10/09 03:11:02;;;;;;;4.53;2.17;;;;;;;18.48;43.84;102392.19;5061633;28;20027;-64
2022/10/09 03:13:28;;;;;;;4.22;2.20;;;;;;;18.52;43.77;102400.78;5061079;28;20028;-64
2022/10/09 03:15:53;;;;;;;4.82;2.63;;;;;;;18.54;43.74;102395.41;5061670;28;20038;-64
2022/10/09 03:18:18;;;;;;;5.10;2.53;;;;;;;18.48;43.72;102391.31;5061023;28;20048;-64
2022/10/09 03:20:44;;;;;;;5.63;2.40;;;;;;;18.46;43.80;102395.84;5061396;28;20024;-65
2022/10/09 03:23:10;;;;;;;5.88;2.47;;;;;;;18.47;43.83;102387.00;5061031;28;20475;-65
2022/10/09 03:25:35;;;;;;;4.28;2.50;;;;;;;18.53;43.65;102402.44;5061261;28;21007;-64
2022/10/09 03:28:01;;;;;;;5.50;2.58;;;;;;;18.47;43.58;102398.41;5061453;28;20047;-63
2022/10/09 03:30:26;;;;;;;7.22;2.53;;;;;;;18.29;43.72;102359.84;5061413;28;20032;-63
2022/10/09 03:32:51;;;;;;;5.90;2.33;;;;;;;18.45;43.75;102383.56;5061287;28;20040;-63
2022/10/09 03:35:17;;;;;;;7.32;2.55;;;;;;;18.45;43.68;102391.50;5061068;28;20704;-64
2022/10/09 03:37:42;;;;;;;4.30;2.33;;;;;;;18.51;43.50;102400.84;5061416;28;20028;-64
2022/10/09 03:40:08;;;;;;;6.00;2.70;;;;;;;18.44;43.60;102379.25;5061634;28;21347;-62
2022/10/09 03:42:33;;;;;;;5.47;2.50;;;;;;;18.41;43.49;102371.50;5061191;28;20278;-62
2022/10/09 03:45:02;;;;;;;5.67;2.73;;;;;;;18.43;43.58;102381.03;5061281;28;20033;-62
2022/10/09 03:47:28;;;;;;;5.55;2.65;;;;;;;18.47;43.39;102387.84;5060084;28;20307;-65
2022/10/09 03:49:53;;;;;;;5.13;2.53;;;;;;;18.47;43.57;102384.34;5060886;28;20839;-63
2022/10/09 03:52:18;;;;;;;5.13;2.57;;;;;;;18.40;43.58;102378.56;5060746;28;20272;-64
2022/10/09 03:54:43;;;;;;;4.37;2.63;;;;;;;18.45;43.37;102388.84;5061092;28;20266;-65
2022/10/09 03:57:09;;;;;;;4.57;2.30;;;;;;;18.42;43.62;102391.66;5061161;28;20269;-61
2022/10/09 03:59:34;;;;;;;5.65;2.53;;;;;;;18.44;43.54;102393.28;5060858;28;20674;-61
2022/10/09 04:01:59;;;;;;;5.57;2.47;;;;;;;18.39;43.17;102390.06;5060827;28;20134;-65
2022/10/09 04:04:24;;;;;;;6.10;2.40;;;;;;;18.41;43.56;102395.28;5060630;28;20337;-64
2022/10/09 04:06:50;;;;;;;4.43;2.22;;;;;;;18.38;43.45;102398.09;5060716;28;20417;-63
2022/10/09 04:09:15;;;;;;;4.30;2.30;;;;;;;18.37;43.49;102394.56;5060766;28;20028;-63
2022/10/09 04:11:40;;;;;;;5.07;2.70;;;;;;;18.39;43.37;102397.13;5060904;28;20283;-64
2022/10/09 04:14:05;;;;;;;5.38;2.45;;;;;;;18.43;43.41;102404.78;5060959;28;20617;-64
2022/10/09 04:16:31;;;;;;;5.97;2.67;;;;;;;18.41;43.34;102393.47;5060908;28;20044;-64
2022/10/09 04:18:56;;;;;;;4.90;2.40;;;;;;;18.43;43.18;102401.28;5060674;28;20032;-64
2022/10/09 04:21:21;;;;;;;5.38;2.60;;;;;;;18.43;43.36;102402.13;5060813;28;20344;-62
2022/10/09 04:23:47;;;;;;;5.77;2.53;;;;;;;18.39;43.18;102398.00;5061013;28;20032;-63
2022/10/09 04:26:12;;;;;;;6.28;2.42;;;;;;;18.40;43.10;102390.91;5060009;28;20281;-63
2022/10/09 04:28:38;;;;;;;4.70;2.60;;;;;;;18.36;43.12;102387.63;5060554;28;20032;-64
2022/10/09 04:31:03;;;;;;;4.75;2.75;;;;;;;18.39;42.96;102386.56;5060511;28;20101;-63
2022/10/09 04:33:29;;;;;;;5.82;2.63;;;;;;;18.43;42.83;102393.38;5060664;28;20033;-64
2022/10/09 04:35:55;;;;;;;4.80;2.80;;;;;;;18.34;42.97;102368.38;5060793;28;20112;-65
2022/10/09 04:38:22;;;;;;;5.80;2.67;;;;;;;18.37;43.15;102376.09;5060936;28;20028;-65
2022/10/09 04:41:02;;;;;;;5.07;2.67;;;;;;;18.34;42.93;102378.94;5060624;28;20028;-64
2022/10/09 04:43:28;;;;;;;5.15;2.58;;;;;;;18.40;42.94;102388.28;5060398;28;20395;-67
2022/10/09 04:45:53;;;;;;;4.55;2.60;;;;;;;18.34;42.87;102378.06;5059054;28;20024;-65
2022/10/09 04:48:19;;;;;;;4.35;2.33;;;;;;;18.37;43.11;102386.66;5058232;28;20056;-66
2022/10/09 04:50:44;;;;;;;6.70;2.80;;;;;;;18.39;43.49;102376.88;5060670;28;20044;-63
2022/10/09 04:53:09;;;;;;;5.72;2.70;;;;;;;18.41;43.35;102376.78;5060137;28;20044;-65
2022/10/09 04:55:42;;;;;;;4.50;2.53;;;;;;;18.46;43.80;102380.84;5059850;28;20036;-63
2022/10/09 04:58:09;;;;;;;4.05;2.20;;;;;;;18.42;43.65;102363.50;5060033;28;20107;-64
2022/10/09 05:00:39;;;;;;;4.05;2.40;;;;;;;18.53;43.86;102364.66;5061902;28;20448;-66
2022/10/09 05:03:04;;;;;;;5.88;2.55;;;;;;;18.64;44.38;102368.38;5063407;28;20350;-65
2022/10/09 05:05:31;;;;;;;5.00;2.43;;;;;;;18.69;44.27;102362.78;5064279;28;20058;-64
2022/10/09 05:07:56;;;;;;;4.93;2.30;;;;;;;18.77;44.26;102368.47;5063491;28;20349;-64
2022/10/09 05:10:21;;;;;;;5.63;2.60;;;;;;;18.77;44.25;102359.69;5063306;28;20104;-65
2022/10/09 05:12:46;;;;;;;4.50;2.20;;;;;;;18.86;44.42;102361.81;5062855;28;20266;-65
2022/10/09 05:15:12;;;;;;;4.90;2.17;;;;;;;18.84;44.77;102356.63;5063448;28;20280;-66
2022/10/09 05:17:37;;;;;;;4.95;2.38;;;;;;;18.95;43.47;102369.19;5063258;28;21165;-66
2022/10/09 05:20:02;;;;;;;5.35;2.40;;;;;;;18.94;44.27;102354.25;5062905;28;20043;-66
2022/10/09 05:22:28;;;;;;;4.57;2.38;;;;;;;19.03;44.21;102352.88;5063120;28;20033;-66
2022/10/09 05:24:53;;;;;;;4.80;2.13;;;;;;;19.11;44.40;102350.59;5063137;28;20029;-65
2022/10/09 05:27:18;;;;;;;5.97;2.67;;;;;;;19.11;44.12;102341.84;5062925;28;20284;-66
2022/10/09 05:29:43;;;;;;;5.23;2.20;;;;;;;19.23;43.69;102354.25;5063084;28;20593;-67
2022/10/09 05:32:09;;;;;;;5.53;2.50;;;;;;;19.20;43.59;102347.41;5063250;28;20342;-67
2022/10/09 05:34:34;;;;;;;4.63;2.53;;;;;;;19.27;43.40;102355.78;5063059;28;20253;-67
2022/10/09 05:36:59;;;;;;;4.57;2.35;;;;;;;19.27;43.48;102347.84;5060461;28;20336;-66
2022/10/09 05:39:25;;;;;;;5.00;2.25;;;;;;;19.13;43.45;102324.91;5062162;28;20028;-67
2022/10/09 05:41:50;;;;;;;4.53;2.45;;;;;;;19.29;43.47;102351.25;5062005;28;20033;-67
2022/10/09 05:44:15;;;;;;;6.93;2.75;;;;;;;19.36;43.30;102360.50;5062493;28;20534;-66
2022/10/09 05:46:40;;;;;;;5.30;2.47;;;;;;;19.29;43.59;102340.66;5062892;28;20028;-67
2022/10/09 05:49:06;;;;;;;4.05;2.25;;;;;;;19.37;43.33;102348.13;5063174;28;20074;-69
2022/10/09 05:51:34;;;;;;;4.85;2.50;;;;;;;19.29;43.51;102339.84;5062960;28;20074;-66
2022/10/09 05:54:00;;;;;;;7.82;2.40;;;;;;;19.38;43.49;102355.97;5060454;28;20046;-66
2022/10/09 05:56:31;;;;;;;4.75;2.40;;;;;;;19.39;43.40;102357.66;5062821;28;20478;-67
2022/10/09 05:58:59;;;;;;;4.70;2.50;;;;;;;19.37;43.34;102354.25;5063223;28;20033;-67
2022/10/09 06:01:27;;;;;;;5.30;2.40;;;;;;;19.29;43.42;102345.13;5062779;28;20056;-64
2022/10/09 06:03:55;;;;;;;4.95;2.28;;;;;;;19.27;43.67;102339.91;5061002;28;20036;-64
2022/10/09 06:06:23;;;;;;;6.88;2.50;;;;;;;19.32;43.52;102352.84;5062148;28;20066;-68
2022/10/09 06:08:48;;;;;;;5.03;2.10;;;;;;;19.31;43.71;102356.44;5062270;28;20046;-66
2022/10/09 06:11:17;;;;;;;6.13;2.30;;;;;;;19.25;43.55;102344.47;5061832;28;20037;-66
2022/10/09 06:13:43;;;;;;;5.32;2.40;;;;;;;19.23;43.63;102341.03;5061862;28;20032;-67
2022/10/09 06:16:10;;;;;;;10.80;2.67;;;;;;;19.24;43.50;102347.19;5062191;28;20036;-65
2022/10/09 06:18:36;;;;;;;6.28;2.28;;;;;;;19.26;43.43;102348.78;5062473;28;20886;-65
2022/10/09 06:21:02;;;;;;;4.65;2.10;;;;;;;19.24;43.18;102355.97;5059959;28;20075;-66
2022/10/09 06:23:30;;;;;;;4.93;2.40;;;;;;;19.23;43.51;102356.06;5062140;28;20035;-66
2022/10/09 06:26:06;;;;;;;6.05;2.25;;;;;;;19.18;43.32;102353.72;5062181;28;20873;-65
2022/10/09 06:28:33;;;;;;;6.55;2.50;;;;;;;19.13;43.36;102353.16;5062283;28;20041;-65
2022/10/09 06:31:06;;;;;;;6.30;2.45;;;;;;;19.01;42.44;102339.75;5062481;28;20024;-65
2022/10/09 06:33:33;;;;;;;6.53;2.33;;;;;;;19.14;43.28;102360.16;5062293;28;20072;-64
2022/10/09 06:36:00;;;;;;;4.82;2.00;;;;;;;19.15;43.47;102369.75;5061305;28;20036;-64
2022/10/09 06:38:26;;;;;;;5.75;2.67;;;;;;;19.09;43.25;102362.19;5060460;28;20140;-64
2022/10/09 06:40:51;;;;;;;4.30;2.30;;;;;;;19.13;43.57;102366.38;5061622;28;20166;-66
2022/10/09 06:43:16;;;;;;;4.53;2.30;;;;;;;19.07;43.66;102362.28;5061416;28;20577;-65
2022/10/09 06:45:41;;;;;;;4.97;2.67;;;;;;;19.09;43.78;102360.44;5061642;28;20043;-64
2022/10/09 06:48:07;;;;;;;4.67;2.43;;;;;;;19.12;43.48;102359.38;5061712;28;20257;-65
2022/10/09 06:50:35;;;;;;;5.68;2.40;;;;;;;19.03;43.67;102345.78;5061636;28;20373;-66
2022/10/09 06:53:00;;;;;;;4.05;2.40;;;;;;;19.05;43.62;102352.78;5060781;28;20059;-65
2022/10/09 06:55:25;;;;;;;6.93;3.00;;;;;;;19.08;43.51;102355.22;5061651;28;20383;-65
2022/10/09 06:57:50;;;;;;;5.43;2.70;;;;;;;19.04;43.48;102349.25;5060725;28;20106;-65
2022/10/09 07:00:16;;;;;;;5.00;2.67;;;;;;;19.10;43.51;102363.91;5061117;28;20285;-67
2022/10/09 07:02:41;;;;;;;4.70;2.38;;;;;;;19.01;43.69;102352.97;5061503;28;20324;-64
2022/10/09 07:05:07;;;;;;;4.88;2.60;;;;;;;19.03;43.53;102351.06;5061340;28;20028;-66
2022/10/09 07:07:32;;;;;;;5.38;2.60;;;;;;;19.02;43.49;102354.63;5061684;28;20047;-67
2022/10/09 07:09:57;;;;;;;4.70;2.50;;;;;;;18.99;43.73;102354.84;5060545;28;20024;-64
2022/10/09 07:12:22;;;;;;;4.87;2.50;;;;;;;19.08;43.58;102361.34;5060699;28;20047;-67
2022/10/09 07:14:48;;;;;;;4.78;2.58;;;;;;;18.98;43.81;102349.66;5061332;28;20333;-66
2022/10/09 07:17:13;;;;;;;5.55;2.70;;;;;;;19.08;43.87;102368.44;5061750;28;20119;-65
2022/10/09 07:19:38;;;;;;;6.35;3.00;;;;;;;19.05;43.93;102364.19;5060480;28;20036;-65
2022/10/09 07:22:04;;;;;;;5.22;2.50;;;;;;;19.10;44.00;102366.53;5062077;28;20024;-67
2022/10/09 07:24:29;;;;;;;5.55;2.60;;;;;;;19.07;43.96;102362.28;5062989;28;21084;-66
2022/10/09 07:26:56;;;;;;;6.50;2.77;;;;;;;18.99;44.52;102354.84;5060791;28;20052;-66
2022/10/09 07:29:22;;;;;;;5.47;2.70;;;;;;;19.06;44.28;102367.66;5061333;28;20269;-68
2022/10/09 07:31:48;;;;;;;6.15;2.47;;;;;;;19.07;44.16;102367.56;5060693;28;20849;-66
2022/10/09 07:34:13;;;;;;;4.57;2.38;;;;;;;19.07;44.33;102367.56;5061324;28;20028;-66
2022/10/09 07:36:39;;;;;;;4.70;2.35;;;;;;;19.05;44.49;102356.25;5061098;28;20229;-65
2022/10/09 07:39:04;;;;;;;5.70;2.63;;;;;;;19.07;44.38;102361.44;5060108;28;20028;-65
2022/10/09 07:41:30;;;;;;;4.93;2.60;;;;;;;19.10;44.41;102364.75;5060936;28;20048;-65
2022/10/09 07:43:56;;;;;;;6.05;2.97;;;;;;;19.05;44.58;102348.34;5060157;28;20037;-67
2022/10/09 07:46:23;;;;;;;5.80;2.72;;;;;;;19.11;44.39;102363.81;5061012;28;20119;-66
2022/10/09 07:48:49;;;;;;;5.35;2.38;;;;;;;19.06;44.50;102357.97;5060709;28;20036;-66
2022/10/09 07:51:26;;;;;;;4.68;2.60;;;;;;;19.05;44.61;102355.41;5061083;28;20412;-66
2022/10/09 07:53:52;;;;;;;4.93;2.40;;;;;;;19.08;44.87;102355.22;5060285;28;21095;-67
2022/10/09 07:56:23;;;;;;;4.57;2.38;;;;;;;19.12;44.71;102368.16;5060745;28;20043;-66
2022/10/09 07:58:50;;;;;;;6.13;2.25;;;;;;;19.13;45.01;102356.63;5060303;28;20487;-66
2022/10/09 08:01:16;;;;;;;5.13;2.30;;;;;;;19.14;44.61;102357.50;5060878;28;20040;-65
2022/10/09 08:03:41;;;;;;;8.15;2.58;;;;;;;19.08;44.90;102349.94;5060759;28;20406;-66
2022/10/09 08:06:07;;;;;;;4.93;2.40;;;;;;;19.08;44.73;102347.31;5060593;28;20024;-65
2022/10/09 08:08:32;;;;;;;6.07;2.30;;;;;;;19.08;45.04;102337.56;5060112;28;20332;-66
2022/10/09 08:10:58;;;;;;;4.72;2.50;;;;;;;19.03;44.63;102326.44;5060701;28;20037;-66
2022/10/09 08:13:24;;;;;;;4.93;2.20;;;;;;;19.17;45.06;102349.38;5060340;28;20072;-66
2022/10/09 08:15:49;;;;;;;5.40;2.65;;;;;;;19.15;45.06;102338.91;5060425;28;20252;-65
2022/10/09 08:18:14;;;;;;;4.13;2.10;;;;;;;19.18;45.23;102343.13;5060865;28;20571;-67
2022/10/09 08:20:40;;;;;;;4.80;2.13;;;;;;;19.07;44.96;102325.28;5059927;28;20520;-66
2022/10/09 08:23:05;;;;;;;6.50;2.50;;;;;;;19.11;45.21;102334.75;5058285;28;20024;-65
2022/10/09 08:25:36;;;;;;;4.83;2.53;;;;;;;19.13;45.05;102332.00;5060020;28;20970;-68
2022/10/09 08:28:02;;;;;;;3.95;2.10;;;;;;;19.13;45.23;102330.19;5058704;28;20379;-67
2022/10/09 08:30:28;;;;;;;5.13;2.60;;;;;;;19.17;45.22;102342.28;5060669;28;20051;-67
2022/10/09 08:32:53;;;;;;;5.10;2.33;;;;;;;19.20;45.33;102341.25;5060611;28;20372;-67
2022/10/09 08:35:18;;;;;;;4.10;2.33;;;;;;;19.15;45.22;102320.41;5063789;28;20033;-69
2022/10/09 08:37:43;;;;;;;4.83;2.50;;;;;;;19.19;45.56;102323.69;5063633;28;20093;-66
2022/10/09 08:40:17;;;;;;;5.77;2.23;;;;;;;19.17;45.27;102323.78;5064154;28;20271;-66
2022/10/09 08:42:51;;;;;;;4.28;2.40;;;;;;;19.22;45.27;102328.78;5063585;28;20304;-65
2022/10/09 08:45:18;;;;;;;5.15;2.00;;;;;;;19.24;45.19;102329.53;5064241;28;20041;-67
2022/10/09 08:47:55;;;;;;;5.93;2.63;;;;;;;19.23;45.29;102327.84;5063786;28;20111;-67
2022/10/09 08:50:28;;;;;;;4.40;2.10;;;;;;;19.20;45.49;102320.97;5063689;28;20036;-65
2022/10/09 08:53:01;;;;;;;9.23;2.58;;;;;;;19.20;45.25;102317.44;5064033;28;20384;-66
2022/10/09 08:55:42;;;;;;;4.30;2.10;;;;;;;19.21;45.55;102313.88;5064614;28;20385;-66
2022/10/09 08:58:15;;;;;;;6.05;2.35;;;;;;;19.27;45.38;102316.13;5063711;28;20043;-65
2022/10/09 09:00:52;;;;;;;4.87;2.17;;;;;;;19.28;45.10;102311.69;5063805;28;20027;-66
2022/10/09 09:03:20;;;;;;;5.63;3.30;;;;;;;19.29;45.24;102313.41;5063716;28;20299;-66
2022/10/09 09:05:53;;;;;;;6.95;2.53;;;;;;;19.29;45.23;102305.47;5064012;28;20025;-67
2022/10/09 09:08:44;;;;;;;4.63;2.20;;;;;;;19.30;44.83;102307.19;5062279;28;20794;-66
2022/10/09 09:11:15;;;;;;;7.45;2.15;;;;;;;19.30;45.05;102305.38;5064014;28;20052;-66
2022/10/09 09:13:55;;;;;;;4.72;1.95;;;;;;;19.25;44.88;102285.44;5062595;28;20809;-65
2022/10/09 09:16:42;;;;;;;4.60;2.08;;;;;;;19.31;44.90;102296.50;5064353;28;20539;-64
2022/10/09 09:19:32;;;;;;;5.32;2.70;;;;;;;19.31;45.08;102291.22;5064104;28;20028;-67
2022/10/09 09:21:58;;;;;;;4.60;1.98;;;;;;;19.26;45.19;102279.22;5063893;28;20033;-65
2022/10/09 09:24:36;;;;;;;4.13;2.13;;;;;;;19.28;45.17;102286.13;5063240;28;20106;-65
2022/10/09 09:27:11;;;;;;;5.10;2.22;;;;;;;19.24;44.99;102274.03;5063504;28;20052;-66
2022/10/09 09:29:47;;;;;;;4.72;1.92;;;;;;;19.32;45.38;102281.47;5061228;28;20048;-65
2022/10/09 09:32:20;;;;;;;4.53;2.08;;;;;;;19.28;44.95;102274.69;5063699;28;20488;-65
2022/10/09 09:34:46;;;;;;;6.07;2.33;;;;;;;19.27;45.20;102257.16;5062771;28;20040;-63
2022/10/09 09:37:12;;;;;;;5.55;1.77;;;;;;;19.26;45.19;102251.00;5062931;28;20048;-66
2022/10/09 09:39:39;;;;;;;4.20;2.00;;;;;;;19.32;45.16;102249.75;5063084;28;20033;-63
2022/10/09 09:42:04;;;;;;;6.05;1.83;;;;;;;19.37;45.31;102255.59;5062794;28;20078;-62
2022/10/09 09:44:32;;;;;;;5.10;1.80;;;;;;;19.32;45.51;102240.03;5062465;28;20044;-63
2022/10/09 09:46:57;;;;;;;4.25;1.80;;;;;;;19.37;45.31;102245.03;5062310;28;20813;-64
2022/10/09 09:49:26;;;;;;;5.43;1.92;;;;;;;19.37;45.40;102247.66;5062793;28;20067;-62
2022/10/09 09:51:52;;;;;;;4.15;1.80;;;;;;;19.40;45.60;102242.19;5061968;28;20967;-63
2022/10/09 09:54:21;;;;;;;5.40;1.70;;;;;;;19.41;45.32;102233.31;5063215;28;20032;-65
2022/10/09 09:56:49;;;;;;;5.47;2.05;;;;;;;19.37;45.41;102221.22;5062677;28;20042;-64
2022/10/09 09:59:36;;;;;;;5.15;1.80;;;;;;;19.38;45.68;102233.50;5060854;28;20144;-63
2022/10/09 10:02:04;;;;;;;4.53;1.80;;;;;;;19.47;45.41;102237.34;5062328;28;20040;-65
2022/10/09 10:04:30;;;;;;;4.07;1.70;;;;;;;19.46;45.53;102225.09;5060977;28;20126;-64
2022/10/09 10:06:58;;;;;;;4.65;1.75;;;;;;;19.35;45.77;102212.56;5062878;28;20460;-64
2022/10/09 10:09:23;;;;;;;3.83;1.65;;;;;;;19.43;45.85;102212.06;5062502;28;20051;-63
2022/10/09 10:11:59;;;;;;;3.85;1.60;;;;;;;19.51;45.74;102220.34;5062434;28;20456;-64
2022/10/09 10:14:25;;;;;;;6.00;2.08;;;;;;;19.51;45.67;102217.69;5061803;28;20036;-64
2022/10/09 10:16:52;;;;;;;5.13;1.70;;;;;;;19.54;45.65;102217.50;5061999;28;20054;-64
2022/10/09 10:19:24;;;;;;;4.32;1.75;;;;;;;19.49;45.79;102209.88;5062062;28;20028;-67
2022/10/09 10:21:58;;;;;;;4.18;1.40;;;;;;;19.50;45.78;102206.28;5062785;28;20036;-64
2022/10/09 10:24:29;;;;;;;5.40;1.60;;;;;;;19.54;45.69;102209.56;5062224;28;20038;-63
2022/10/09 10:27:01;;;;;;;4.75;1.52;;;;;;;19.53;45.77;102194.63;5062288;28;20048;-65
2022/10/09 10:29:44;;;;;;;4.75;1.75;;;;;;;19.50;45.76;102210.69;5062677;28;20033;-68
2022/10/09 10:32:28;;;;;;;5.22;1.70;;;;;;;19.56;45.65;102203.19;5062032;28;20476;-66
2022/10/09 10:35:12;;;;;;;3.75;1.40;;;;;;;19.55;45.56;102201.53;5059859;28;20040;-70
2022/10/09 10:37:51;;;;;;;8.68;1.40;;;;;;;19.47;45.85;102190.63;5059985;28;20040;-71
2022/10/09 10:40:32;;;;;;;5.40;1.77;;;;;;;19.53;45.69;102187.53;5061075;28;20037;-74
2022/10/09 10:43:09;;;;;;;4.50;1.60;;;;;;;19.58;45.66;102184.59;5061380;28;20032;-71
2022/10/09 10:46:12;;;;;;;4.55;1.50;;;;;;;19.65;45.74;102172.66;5061176;28;20522;-68
2022/10/09 10:48:44;;;;;;;3.65;1.38;;;;;;;19.71;45.41;102174.91;5061329;28;20039;-71
2022/10/09 10:51:09;;;;;;;3.33;1.40;;;;;;;19.71;45.40;102172.25;5061228;28;20028;-68
2022/10/09 10:53:53;;;;;;;5.23;1.80;;;;;;;19.74;45.55;102174.72;5061085;28;20028;-70
2022/10/09 10:56:28;;;;;;;5.80;1.77;;;;;;;19.74;45.44;102165.91;5061244;28;20035;-73
2022/10/09 10:59:27;;;;;;;3.97;1.50;;;;;;;19.82;45.19;102157.50;5061043;28;20095;-71
2022/10/09 11:02:05;;;;;;;4.70;1.85;;;;;;;19.85;45.37;102158.16;5061266;28;20063;-72
2022/10/09 11:04:54;;;;;;;5.85;1.90;;;;;;;19.90;45.35;102158.69;5060466;28;20033;-71
2022/10/09 11:07:57;;;;;;;3.17;1.33;;;;;;;19.93;45.04;102145.25;5061114;28;20028;-72
2022/10/09 11:10:51;;;;;;;4.00;1.40;;;;;;;19.97;45.21;102152.97;5060662;28;20069;-72
2022/10/09 11:13:24;;;;;;;4.68;1.50;;;;;;;19.91;44.78;102128.59;5060682;28;20056;-72
2022/10/09 11:16:08;;;;;;;4.03;1.55;;;;;;;20.02;44.77;102145.56;5061305;28;20067;-74
2022/10/09 11:19:02;;;;;;;3.65;1.38;;;;;;;19.99;44.85;102130.72;5060586;28;20032;-70
2022/10/09 11:21:55;;;;;;;2.85;1.27;;;;;;;20.05;44.74;102132.13;5060608;28;20039;-70
2022/10/09 11:24:39;;;;;;;4.03;1.45;;;;;;;20.02;44.63;102122.56;5060464;28;20127;-71
2022/10/09 11:27:19;;;;;;;3.30;1.38;;;;;;;20.08;44.53;102123.97;5060750;28;20075;-69
2022/10/09 11:30:04;;;;;;;3.17;1.23;;;;;;;20.07;44.60;102128.38;5060602;28;20031;-67
2022/10/09 11:32:35;;;;;;;3.63;1.83;;;;;;;19.84;44.68;102081.53;5060126;28;20113;-66
2022/10/09 11:35:22;;;;;;;3.38;1.30;;;;;;;20.03;44.85;102113.69;5060308;28;20040;-62